sensor_id;sensor_type;location;lat;lon;timestamp;P1;durP1;ratioP1;P2;durP2;ratioP2
7919;SDS011;18778;47.610;9.776;2023-03-19T00:02:01;12.47;;;10.20;;
7919;SDS011;18778;47.610;9.776;2023-03-19T00:04:27;13.00;;;10.20;;
7919;SDS011;18778;47.610;9.776;2023-03-19T00:06:53;14.87;;;10.13;;
7919;SDS011;18778;47.610;9.776;2023-03-19T00:09:19;13.77;;;9.80;;
7919;SDS011;18778;47.610;9.776;2023-03-19T00:11:45;14.50;;;9.43;;
7919;SDS011;18778;47.610;9.776;2023-03-19T00:14:12;15.20;;;9.57;;
7919;SDS011;18778;47.610;9.776;2023-03-19T00:16:38;14.63;;;9.30;;
7919;SDS011;18778;47.610;9.776;2023-03-19T00:19:04;13.80;;;10.10;;
7919;SDS011;18778;47.610;9.776;2023-03-19T00:21:29;14.20;;;9.43;;
7919;SDS011;18778;47.610;9.776;2023-03-19T00:23:56;15.77;;;9.57;;
7919;SDS011;18778;47.610;9.776;2023-03-19T00:26:25;13.30;;;9.80;;
7919;SDS011;18778;47.610;9.776;2023-03-19T00:28:52;16.50;;;10.30;;
7919;SDS011;18778;47.610;9.776;2023-03-19T00:31:18;15.27;;;10.67;;
7919;SDS011;18778;47.610;9.776;2023-03-19T00:33:43;15.77;;;10.63;;
7919;SDS011;18778;47.610;9.776;2023-03-19T00:36:09;15.10;;;10.70;;
7919;SDS011;18778;47.610;9.776;2023-03-19T00:38:35;14.77;;;10.23;;
7919;SDS011;18778;47.610;9.776;2023-03-19T00:41:02;16.27;;;9.93;;
7919;SDS011;18778;47.610;9.776;2023-03-19T00:43:29;14.43;;;10.23;;
7919;SDS011;18778;47.610;9.776;2023-03-19T00:45:56;16.00;;;10.97;;
7919;SDS011;18778;47.610;9.776;2023-03-19T00:48:22;12.23;;;10.03;;
7919;SDS011;18778;47.610;9.776;2023-03-19T00:50:48;13.70;;;10.00;;
7919;SDS011;18778;47.610;9.776;2023-03-19T00:53:14;16.77;;;10.50;;
7919;SDS011;18778;47.610;9.776;2023-03-19T00:55:40;16.17;;;10.50;;
7919;SDS011;18778;47.610;9.776;2023-03-19T00:58:05;13.63;;;10.23;;
7919;SDS011;18778;47.610;9.776;2023-03-19T01:00:32;15.83;;;10.40;;
7919;SDS011;18778;47.610;9.776;2023-03-19T01:02:58;12.83;;;9.93;;
7919;SDS011;18778;47.610;9.776;2023-03-19T01:05:24;13.63;;;10.40;;
7919;SDS011;18778;47.610;9.776;2023-03-19T01:07:50;16.70;;;10.40;;
7919;SDS011;18778;47.610;9.776;2023-03-19T01:10:19;12.13;;;9.63;;
7919;SDS011;18778;47.610;9.776;2023-03-19T01:12:46;13.03;;;9.53;;
7919;SDS011;18778;47.610;9.776;2023-03-19T01:15:12;12.17;;;9.03;;
7919;SDS011;18778;47.610;9.776;2023-03-19T01:17:38;11.53;;;9.07;;
7919;SDS011;18778;47.610;9.776;2023-03-19T01:20:04;14.50;;;9.60;;
7919;SDS011;18778;47.610;9.776;2023-03-19T01:22:36;11.63;;;8.90;;
7919;SDS011;18778;47.610;9.776;2023-03-19T01:25:03;11.70;;;9.10;;
7919;SDS011;18778;47.610;9.776;2023-03-19T01:27:29;14.43;;;9.43;;
7919;SDS011;18778;47.610;9.776;2023-03-19T01:29:55;13.07;;;9.30;;
7919;SDS011;18778;47.610;9.776;2023-03-19T01:32:20;15.33;;;10.37;;
7919;SDS011;18778;47.610;9.776;2023-03-19T01:34:47;13.77;;;9.23;;
7919;SDS011;18778;47.610;9.776;2023-03-19T01:37:12;12.57;;;9.27;;
7919;SDS011;18778;47.610;9.776;2023-03-19T01:39:38;12.50;;;10.00;;
7919;SDS011;18778;47.610;9.776;2023-03-19T01:42:04;15.00;;;9.97;;
7919;SDS011;18778;47.610;9.776;2023-03-19T01:44:31;13.10;;;9.50;;
7919;SDS011;18778;47.610;9.776;2023-03-19T01:46:59;12.57;;;9.33;;
7919;SDS011;18778;47.610;9.776;2023-03-19T01:49:29;14.27;;;9.30;;
7919;SDS011;18778;47.610;9.776;2023-03-19T01:51:55;12.87;;;9.23;;
7919;SDS011;18778;47.610;9.776;2023-03-19T01:54:24;14.90;;;8.67;;
7919;SDS011;18778;47.610;9.776;2023-03-19T01:56:52;14.70;;;9.60;;
7919;SDS011;18778;47.610;9.776;2023-03-19T01:59:30;11.47;;;8.07;;
7919;SDS011;18778;47.610;9.776;2023-03-19T02:02:01;11.90;;;8.77;;
7919;SDS011;18778;47.610;9.776;2023-03-19T02:04:31;12.87;;;8.73;;
7919;SDS011;18778;47.610;9.776;2023-03-19T02:06:59;12.50;;;8.30;;
7919;SDS011;18778;47.610;9.776;2023-03-19T02:09:26;13.53;;;8.10;;
7919;SDS011;18778;47.610;9.776;2023-03-19T02:11:53;11.23;;;8.67;;
7919;SDS011;18778;47.610;9.776;2023-03-19T02:14:19;13.07;;;8.63;;
7919;SDS011;18778;47.610;9.776;2023-03-19T02:16:45;10.70;;;8.20;;
7919;SDS011;18778;47.610;9.776;2023-03-19T02:19:13;11.70;;;8.80;;
7919;SDS011;18778;47.610;9.776;2023-03-19T02:21:43;11.87;;;7.20;;
7919;SDS011;18778;47.610;9.776;2023-03-19T02:24:13;9.07;;;7.40;;
7919;SDS011;18778;47.610;9.776;2023-03-19T02:26:45;10.73;;;7.47;;
7919;SDS011;18778;47.610;9.776;2023-03-19T02:29:12;10.00;;;7.33;;
7919;SDS011;18778;47.610;9.776;2023-03-19T02:31:38;9.27;;;7.20;;
7919;SDS011;18778;47.610;9.776;2023-03-19T02:36:46;10.13;;;7.90;;
7919;SDS011;18778;47.610;9.776;2023-03-19T02:39:18;10.63;;;7.87;;
7919;SDS011;18778;47.610;9.776;2023-03-19T02:42:09;10.47;;;7.83;;
7919;SDS011;18778;47.610;9.776;2023-03-19T02:44:37;10.90;;;7.73;;
7919;SDS011;18778;47.610;9.776;2023-03-19T02:47:03;13.73;;;8.93;;
7919;SDS011;18778;47.610;9.776;2023-03-19T02:49:29;13.23;;;8.27;;
7919;SDS011;18778;47.610;9.776;2023-03-19T02:51:55;11.27;;;8.13;;
7919;SDS011;18778;47.610;9.776;2023-03-19T02:54:20;11.67;;;8.90;;
7919;SDS011;18778;47.610;9.776;2023-03-19T02:56:46;11.13;;;8.20;;
7919;SDS011;18778;47.610;9.776;2023-03-19T02:59:13;11.07;;;8.70;;
7919;SDS011;18778;47.610;9.776;2023-03-19T03:01:38;12.43;;;9.33;;
7919;SDS011;18778;47.610;9.776;2023-03-19T03:04:04;9.30;;;7.73;;
7919;SDS011;18778;47.610;9.776;2023-03-19T03:06:30;10.30;;;8.30;;
7919;SDS011;18778;47.610;9.776;2023-03-19T03:08:56;11.37;;;8.00;;
7919;SDS011;18778;47.610;9.776;2023-03-19T03:11:22;10.43;;;7.93;;
7919;SDS011;18778;47.610;9.776;2023-03-19T03:13:48;10.50;;;7.40;;
7919;SDS011;18778;47.610;9.776;2023-03-19T03:16:13;8.40;;;7.47;;
7919;SDS011;18778;47.610;9.776;2023-03-19T03:18:39;9.77;;;7.50;;
7919;SDS011;18778;47.610;9.776;2023-03-19T03:21:05;8.00;;;7.13;;
7919;SDS011;18778;47.610;9.776;2023-03-19T03:23:31;10.30;;;6.93;;
7919;SDS011;18778;47.610;9.776;2023-03-19T03:25:57;10.83;;;7.27;;
7919;SDS011;18778;47.610;9.776;2023-03-19T03:28:22;9.43;;;7.80;;
7919;SDS011;18778;47.610;9.776;2023-03-19T03:30:48;10.47;;;7.67;;
7919;SDS011;18778;47.610;9.776;2023-03-19T03:33:14;10.47;;;7.60;;
7919;SDS011;18778;47.610;9.776;2023-03-19T03:35:41;9.83;;;7.37;;
7919;SDS011;18778;47.610;9.776;2023-03-19T03:38:06;7.83;;;6.97;;
7919;SDS011;18778;47.610;9.776;2023-03-19T03:40:32;8.67;;;6.77;;
7919;SDS011;18778;47.610;9.776;2023-03-19T03:42:58;8.27;;;6.50;;
7919;SDS011;18778;47.610;9.776;2023-03-19T03:45:24;8.33;;;6.80;;
7919;SDS011;18778;47.610;9.776;2023-03-19T03:47:51;7.63;;;6.27;;
7919;SDS011;18778;47.610;9.776;2023-03-19T03:50:16;8.50;;;6.57;;
7919;SDS011;18778;47.610;9.776;2023-03-19T03:52:42;9.33;;;7.10;;
7919;SDS011;18778;47.610;9.776;2023-03-19T03:55:08;9.70;;;7.70;;
7919;SDS011;18778;47.610;9.776;2023-03-19T03:57:34;8.73;;;6.80;;
7919;SDS011;18778;47.610;9.776;2023-03-19T04:00:00;9.73;;;7.10;;
7919;SDS011;18778;47.610;9.776;2023-03-19T04:02:25;7.27;;;6.53;;
7919;SDS011;18778;47.610;9.776;2023-03-19T04:04:51;12.83;;;7.33;;
7919;SDS011;18778;47.610;9.776;2023-03-19T04:07:18;9.73;;;6.67;;
7919;SDS011;18778;47.610;9.776;2023-03-19T04:09:43;9.93;;;7.23;;
7919;SDS011;18778;47.610;9.776;2023-03-19T04:12:10;10.50;;;7.53;;
7919;SDS011;18778;47.610;9.776;2023-03-19T04:14:36;7.90;;;7.10;;
7919;SDS011;18778;47.610;9.776;2023-03-19T04:17:02;11.27;;;7.20;;
7919;SDS011;18778;47.610;9.776;2023-03-19T04:19:29;8.87;;;7.00;;
7919;SDS011;18778;47.610;9.776;2023-03-19T04:21:55;15.30;;;6.87;;
7919;SDS011;18778;47.610;9.776;2023-03-19T04:24:21;7.70;;;5.77;;
7919;SDS011;18778;47.610;9.776;2023-03-19T04:26:47;7.70;;;6.47;;
7919;SDS011;18778;47.610;9.776;2023-03-19T04:29:13;12.57;;;6.97;;
7919;SDS011;18778;47.610;9.776;2023-03-19T04:31:39;8.37;;;6.63;;
7919;SDS011;18778;47.610;9.776;2023-03-19T04:34:05;9.20;;;6.50;;
7919;SDS011;18778;47.610;9.776;2023-03-19T04:36:31;9.97;;;7.20;;
7919;SDS011;18778;47.610;9.776;2023-03-19T04:38:57;9.23;;;6.60;;
7919;SDS011;18778;47.610;9.776;2023-03-19T04:41:23;11.20;;;7.57;;
7919;SDS011;18778;47.610;9.776;2023-03-19T04:43:48;8.70;;;6.80;;
7919;SDS011;18778;47.610;9.776;2023-03-19T04:46:14;8.47;;;6.57;;
7919;SDS011;18778;47.610;9.776;2023-03-19T04:48:40;8.60;;;6.70;;
7919;SDS011;18778;47.610;9.776;2023-03-19T04:51:06;7.83;;;6.97;;
7919;SDS011;18778;47.610;9.776;2023-03-19T04:53:33;10.83;;;6.70;;
7919;SDS011;18778;47.610;9.776;2023-03-19T04:56:00;8.87;;;7.00;;
7919;SDS011;18778;47.610;9.776;2023-03-19T04:58:26;16.67;;;7.10;;
7919;SDS011;18778;47.610;9.776;2023-03-19T05:00:52;7.67;;;6.10;;
7919;SDS011;18778;47.610;9.776;2023-03-19T05:03:17;6.97;;;6.00;;
7919;SDS011;18778;47.610;9.776;2023-03-19T05:05:43;9.13;;;7.23;;
7919;SDS011;18778;47.610;9.776;2023-03-19T05:08:09;8.87;;;7.33;;
7919;SDS011;18778;47.610;9.776;2023-03-19T05:10:35;9.00;;;7.10;;
7919;SDS011;18778;47.610;9.776;2023-03-19T05:13:02;8.07;;;6.80;;
7919;SDS011;18778;47.610;9.776;2023-03-19T05:15:28;9.90;;;7.17;;
7919;SDS011;18778;47.610;9.776;2023-03-19T05:17:53;11.77;;;7.43;;
7919;SDS011;18778;47.610;9.776;2023-03-19T05:20:19;9.40;;;7.03;;
7919;SDS011;18778;47.610;9.776;2023-03-19T05:22:45;10.33;;;7.97;;
7919;SDS011;18778;47.610;9.776;2023-03-19T05:25:11;8.90;;;7.43;;
7919;SDS011;18778;47.610;9.776;2023-03-19T05:27:37;9.67;;;7.63;;
7919;SDS011;18778;47.610;9.776;2023-03-19T05:30:03;9.13;;;7.80;;
7919;SDS011;18778;47.610;9.776;2023-03-19T05:32:29;9.43;;;7.83;;
7919;SDS011;18778;47.610;9.776;2023-03-19T05:34:55;12.10;;;7.87;;
7919;SDS011;18778;47.610;9.776;2023-03-19T05:37:22;9.00;;;7.43;;
7919;SDS011;18778;47.610;9.776;2023-03-19T05:39:48;8.27;;;6.90;;
7919;SDS011;18778;47.610;9.776;2023-03-19T05:42:14;10.13;;;7.10;;
7919;SDS011;18778;47.610;9.776;2023-03-19T05:44:40;10.33;;;7.00;;
7919;SDS011;18778;47.610;9.776;2023-03-19T05:47:06;8.83;;;7.07;;
7919;SDS011;18778;47.610;9.776;2023-03-19T05:49:32;9.33;;;6.47;;
7919;SDS011;18778;47.610;9.776;2023-03-19T05:51:58;9.43;;;7.30;;
7919;SDS011;18778;47.610;9.776;2023-03-19T05:54:24;9.40;;;6.90;;
7919;SDS011;18778;47.610;9.776;2023-03-19T05:56:50;8.63;;;6.90;;
7919;SDS011;18778;47.610;9.776;2023-03-19T05:59:15;8.23;;;7.20;;
7919;SDS011;18778;47.610;9.776;2023-03-19T06:01:41;8.67;;;6.97;;
7919;SDS011;18778;47.610;9.776;2023-03-19T06:04:07;11.50;;;7.27;;
7919;SDS011;18778;47.610;9.776;2023-03-19T06:06:32;10.43;;;7.07;;
7919;SDS011;18778;47.610;9.776;2023-03-19T06:08:58;9.57;;;7.30;;
7919;SDS011;18778;47.610;9.776;2023-03-19T06:11:23;11.07;;;7.27;;
7919;SDS011;18778;47.610;9.776;2023-03-19T06:13:49;14.03;;;7.80;;
7919;SDS011;18778;47.610;9.776;2023-03-19T06:16:15;10.20;;;7.43;;
7919;SDS011;18778;47.610;9.776;2023-03-19T06:18:41;10.20;;;7.47;;
7919;SDS011;18778;47.610;9.776;2023-03-19T06:21:06;9.63;;;7.33;;
7919;SDS011;18778;47.610;9.776;2023-03-19T06:23:32;10.63;;;7.10;;
7919;SDS011;18778;47.610;9.776;2023-03-19T06:25:57;11.17;;;7.23;;
7919;SDS011;18778;47.610;9.776;2023-03-19T06:28:23;9.70;;;7.17;;
7919;SDS011;18778;47.610;9.776;2023-03-19T06:30:48;13.33;;;7.00;;
7919;SDS011;18778;47.610;9.776;2023-03-19T06:33:14;8.27;;;6.37;;
7919;SDS011;18778;47.610;9.776;2023-03-19T06:35:40;9.20;;;6.43;;
7919;SDS011;18778;47.610;9.776;2023-03-19T06:38:06;7.70;;;6.37;;
7919;SDS011;18778;47.610;9.776;2023-03-19T06:40:31;10.07;;;6.63;;
7919;SDS011;18778;47.610;9.776;2023-03-19T06:42:57;7.87;;;6.40;;
7919;SDS011;18778;47.610;9.776;2023-03-19T06:45:23;10.50;;;6.50;;
7919;SDS011;18778;47.610;9.776;2023-03-19T06:47:49;10.40;;;6.10;;
7919;SDS011;18778;47.610;9.776;2023-03-19T06:50:15;9.73;;;6.33;;
7919;SDS011;18778;47.610;9.776;2023-03-19T06:52:42;9.97;;;6.20;;
7919;SDS011;18778;47.610;9.776;2023-03-19T06:55:08;7.93;;;6.33;;
7919;SDS011;18778;47.610;9.776;2023-03-19T06:57:35;8.83;;;6.80;;
7919;SDS011;18778;47.610;9.776;2023-03-19T07:00:01;8.03;;;7.20;;
7919;SDS011;18778;47.610;9.776;2023-03-19T07:02:28;7.17;;;6.10;;
7919;SDS011;18778;47.610;9.776;2023-03-19T07:04:53;9.07;;;6.40;;
7919;SDS011;18778;47.610;9.776;2023-03-19T07:07:19;7.63;;;6.07;;
7919;SDS011;18778;47.610;9.776;2023-03-19T07:09:45;7.53;;;5.90;;
7919;SDS011;18778;47.610;9.776;2023-03-19T07:12:10;9.20;;;6.57;;
7919;SDS011;18778;47.610;9.776;2023-03-19T07:14:36;9.30;;;6.27;;
7919;SDS011;18778;47.610;9.776;2023-03-19T07:17:01;9.47;;;7.00;;
7919;SDS011;18778;47.610;9.776;2023-03-19T07:19:27;9.53;;;7.07;;
7919;SDS011;18778;47.610;9.776;2023-03-19T07:21:52;8.07;;;6.43;;
7919;SDS011;18778;47.610;9.776;2023-03-19T07:24:18;11.80;;;6.40;;
7919;SDS011;18778;47.610;9.776;2023-03-19T07:26:44;8.67;;;6.60;;
7919;SDS011;18778;47.610;9.776;2023-03-19T07:29:10;7.67;;;6.23;;
7919;SDS011;18778;47.610;9.776;2023-03-19T07:31:36;9.57;;;6.23;;
7919;SDS011;18778;47.610;9.776;2023-03-19T07:34:01;11.10;;;7.10;;
7919;SDS011;18778;47.610;9.776;2023-03-19T07:36:27;14.87;;;10.57;;
7919;SDS011;18778;47.610;9.776;2023-03-19T07:38:53;13.83;;;9.83;;
7919;SDS011;18778;47.610;9.776;2023-03-19T07:41:18;10.80;;;7.60;;
7919;SDS011;18778;47.610;9.776;2023-03-19T07:43:44;15.73;;;11.03;;
7919;SDS011;18778;47.610;9.776;2023-03-19T07:46:10;9.13;;;7.20;;
7919;SDS011;18778;47.610;9.776;2023-03-19T07:48:35;9.77;;;6.77;;
7919;SDS011;18778;47.610;9.776;2023-03-19T07:51:01;8.03;;;6.17;;
7919;SDS011;18778;47.610;9.776;2023-03-19T07:53:27;10.13;;;5.43;;
7919;SDS011;18778;47.610;9.776;2023-03-19T07:55:53;7.77;;;6.07;;
7919;SDS011;18778;47.610;9.776;2023-03-19T07:58:19;7.00;;;5.53;;
7919;SDS011;18778;47.610;9.776;2023-03-19T08:00:45;9.37;;;6.53;;
7919;SDS011;18778;47.610;9.776;2023-03-19T08:03:10;8.27;;;7.00;;
7919;SDS011;18778;47.610;9.776;2023-03-19T08:05:36;20.50;;;14.40;;
7919;SDS011;18778;47.610;9.776;2023-03-19T08:08:02;7.87;;;4.87;;
7919;SDS011;18778;47.610;9.776;2023-03-19T08:10:28;6.63;;;5.07;;
7919;SDS011;18778;47.610;9.776;2023-03-19T08:12:54;6.27;;;4.80;;
7919;SDS011;18778;47.610;9.776;2023-03-19T08:15:19;6.60;;;4.80;;
7919;SDS011;18778;47.610;9.776;2023-03-19T08:17:45;7.97;;;4.87;;
7919;SDS011;18778;47.610;9.776;2023-03-19T08:20:11;8.20;;;5.43;;
7919;SDS011;18778;47.610;9.776;2023-03-19T08:22:42;6.73;;;5.03;;
7919;SDS011;18778;47.610;9.776;2023-03-19T08:25:08;6.53;;;4.90;;
7919;SDS011;18778;47.610;9.776;2023-03-19T08:27:34;6.20;;;4.63;;
7919;SDS011;18778;47.610;9.776;2023-03-19T08:30:01;6.67;;;4.73;;
7919;SDS011;18778;47.610;9.776;2023-03-19T08:32:31;6.57;;;4.57;;
7919;SDS011;18778;47.610;9.776;2023-03-19T08:34:56;5.67;;;4.07;;
7919;SDS011;18778;47.610;9.776;2023-03-19T08:37:22;6.60;;;4.47;;
7919;SDS011;18778;47.610;9.776;2023-03-19T08:39:51;5.23;;;4.30;;
7919;SDS011;18778;47.610;9.776;2023-03-19T08:42:17;7.40;;;4.53;;
7919;SDS011;18778;47.610;9.776;2023-03-19T08:44:43;5.97;;;4.40;;
7919;SDS011;18778;47.610;9.776;2023-03-19T08:47:09;8.97;;;4.70;;
7919;SDS011;18778;47.610;9.776;2023-03-19T08:49:35;5.83;;;5.13;;
7919;SDS011;18778;47.610;9.776;2023-03-19T08:52:00;14.60;;;6.80;;
7919;SDS011;18778;47.610;9.776;2023-03-19T08:54:26;6.27;;;4.60;;
7919;SDS011;18778;47.610;9.776;2023-03-19T08:56:52;3.57;;;2.97;;
7919;SDS011;18778;47.610;9.776;2023-03-19T08:59:17;4.80;;;3.70;;
7919;SDS011;18778;47.610;9.776;2023-03-19T09:01:43;4.03;;;3.20;;
7919;SDS011;18778;47.610;9.776;2023-03-19T09:04:08;5.10;;;3.60;;
7919;SDS011;18778;47.610;9.776;2023-03-19T09:06:34;4.13;;;3.23;;
7919;SDS011;18778;47.610;9.776;2023-03-19T09:09:00;3.50;;;3.20;;
7919;SDS011;18778;47.610;9.776;2023-03-19T09:11:25;4.90;;;3.23;;
7919;SDS011;18778;47.610;9.776;2023-03-19T09:13:51;4.60;;;3.50;;
7919;SDS011;18778;47.610;9.776;2023-03-19T09:16:16;3.70;;;2.70;;
7919;SDS011;18778;47.610;9.776;2023-03-19T09:18:42;4.33;;;3.07;;
7919;SDS011;18778;47.610;9.776;2023-03-19T09:21:08;3.30;;;2.87;;
7919;SDS011;18778;47.610;9.776;2023-03-19T09:23:34;2.87;;;2.67;;
7919;SDS011;18778;47.610;9.776;2023-03-19T09:25:59;4.57;;;2.47;;
7919;SDS011;18778;47.610;9.776;2023-03-19T09:28:25;3.37;;;2.83;;
7919;SDS011;18778;47.610;9.776;2023-03-19T09:30:51;2.90;;;2.53;;
7919;SDS011;18778;47.610;9.776;2023-03-19T09:33:17;3.00;;;2.67;;
7919;SDS011;18778;47.610;9.776;2023-03-19T09:35:47;3.53;;;2.87;;
7919;SDS011;18778;47.610;9.776;2023-03-19T09:38:17;4.53;;;2.33;;
7919;SDS011;18778;47.610;9.776;2023-03-19T09:40:45;2.77;;;2.50;;
7919;SDS011;18778;47.610;9.776;2023-03-19T09:45:53;2.60;;;2.40;;
7919;SDS011;18778;47.610;9.776;2023-03-19T09:48:24;3.67;;;3.30;;
7919;SDS011;18778;47.610;9.776;2023-03-19T09:51:02;2.50;;;2.23;;
7919;SDS011;18778;47.610;9.776;2023-03-19T09:53:39;3.87;;;2.10;;
7919;SDS011;18778;47.610;9.776;2023-03-19T09:56:09;2.30;;;2.10;;
7919;SDS011;18778;47.610;9.776;2023-03-19T09:58:38;3.67;;;2.30;;
7919;SDS011;18778;47.610;9.776;2023-03-19T10:01:04;2.30;;;2.10;;
7919;SDS011;18778;47.610;9.776;2023-03-19T10:06:29;2.57;;;2.37;;
7919;SDS011;18778;47.610;9.776;2023-03-19T10:12:05;4.17;;;2.03;;
7919;SDS011;18778;47.610;9.776;2023-03-19T10:17:41;4.03;;;2.70;;
7919;SDS011;18778;47.610;9.776;2023-03-19T10:26:04;4.97;;;2.50;;
7919;SDS011;18778;47.610;9.776;2023-03-19T10:28:34;2.50;;;2.30;;
7919;SDS011;18778;47.610;9.776;2023-03-19T10:31:13;3.13;;;2.57;;
7919;SDS011;18778;47.610;9.776;2023-03-19T10:33:56;2.60;;;2.40;;
7919;SDS011;18778;47.610;9.776;2023-03-19T10:36:30;2.60;;;2.40;;
7919;SDS011;18778;47.610;9.776;2023-03-19T10:38:58;4.97;;;2.40;;
7919;SDS011;18778;47.610;9.776;2023-03-19T10:41:33;3.00;;;2.30;;
7919;SDS011;18778;47.610;9.776;2023-03-19T10:44:49;3.87;;;2.50;;
7919;SDS011;18778;47.610;9.776;2023-03-19T10:46:59;3.40;;;2.70;;
7919;SDS011;18778;47.610;9.776;2023-03-19T10:49:35;3.73;;;2.17;;
7919;SDS011;18778;47.610;9.776;2023-03-19T10:52:00;3.10;;;2.03;;
7919;SDS011;18778;47.610;9.776;2023-03-19T10:54:27;3.40;;;2.90;;
7919;SDS011;18778;47.610;9.776;2023-03-19T10:56:55;2.90;;;2.30;;
7919;SDS011;18778;47.610;9.776;2023-03-19T10:59:24;2.63;;;2.13;;
7919;SDS011;18778;47.610;9.776;2023-03-19T11:02:17;3.60;;;2.87;;
7919;SDS011;18778;47.610;9.776;2023-03-19T11:04:43;2.80;;;2.50;;
7919;SDS011;18778;47.610;9.776;2023-03-19T11:07:10;5.93;;;4.57;;
7919;SDS011;18778;47.610;9.776;2023-03-19T11:09:43;2.90;;;2.37;;
7919;SDS011;18778;47.610;9.776;2023-03-19T11:14:44;3.13;;;2.20;;
7919;SDS011;18778;47.610;9.776;2023-03-19T11:19:56;4.87;;;2.70;;
7919;SDS011;18778;47.610;9.776;2023-03-19T11:24:50;6.73;;;2.50;;
7919;SDS011;18778;47.610;9.776;2023-03-19T11:33:34;6.33;;;4.17;;
7919;SDS011;18778;47.610;9.776;2023-03-19T11:45:06;2.67;;;2.47;;
7919;SDS011;18778;47.610;9.776;2023-03-19T11:55:21;8.63;;;7.87;;
7919;SDS011;18778;47.610;9.776;2023-03-19T12:01:47;2.80;;;2.30;;
7919;SDS011;18778;47.610;9.776;2023-03-19T12:07:01;3.90;;;2.80;;
7919;SDS011;18778;47.610;9.776;2023-03-19T12:12:20;2.63;;;2.43;;
7919;SDS011;18778;47.610;9.776;2023-03-19T12:20:47;3.77;;;2.70;;
7919;SDS011;18778;47.610;9.776;2023-03-19T12:33:57;3.23;;;2.80;;
7919;SDS011;18778;47.610;9.776;2023-03-19T12:39:29;2.63;;;2.33;;
7919;SDS011;18778;47.610;9.776;2023-03-19T12:41:58;2.60;;;2.20;;
7919;SDS011;18778;47.610;9.776;2023-03-19T12:47:09;3.83;;;2.60;;
7919;SDS011;18778;47.610;9.776;2023-03-19T12:49:43;2.43;;;2.20;;
7919;SDS011;18778;47.610;9.776;2023-03-19T12:52:19;2.83;;;2.50;;
7919;SDS011;18778;47.610;9.776;2023-03-19T12:54:58;4.20;;;2.30;;
7919;SDS011;18778;47.610;9.776;2023-03-19T12:57:39;3.23;;;2.73;;
7919;SDS011;18778;47.610;9.776;2023-03-19T13:05:16;2.57;;;2.27;;
7919;SDS011;18778;47.610;9.776;2023-03-19T13:08:01;4.13;;;2.40;;
7919;SDS011;18778;47.610;9.776;2023-03-19T13:10:34;6.10;;;2.90;;
7919;SDS011;18778;47.610;9.776;2023-03-19T13:13:00;2.20;;;2.00;;
7919;SDS011;18778;47.610;9.776;2023-03-19T13:15:48;2.90;;;2.23;;
7919;SDS011;18778;47.610;9.776;2023-03-19T13:21:27;3.23;;;2.40;;
7919;SDS011;18778;47.610;9.776;2023-03-19T13:26:45;3.73;;;2.30;;
7919;SDS011;18778;47.610;9.776;2023-03-19T13:29:16;8.70;;;2.50;;
7919;SDS011;18778;47.610;9.776;2023-03-19T13:31:43;2.10;;;1.90;;
7919;SDS011;18778;47.610;9.776;2023-03-19T13:36:42;3.03;;;2.20;;
7919;SDS011;18778;47.610;9.776;2023-03-19T13:39:17;2.90;;;2.40;;
7919;SDS011;18778;47.610;9.776;2023-03-19T13:41:52;2.60;;;2.33;;
7919;SDS011;18778;47.610;9.776;2023-03-19T13:44:32;3.43;;;2.10;;
7919;SDS011;18778;47.610;9.776;2023-03-19T13:47:56;2.57;;;2.17;;
7919;SDS011;18778;47.610;9.776;2023-03-19T13:53:19;4.17;;;2.40;;
7919;SDS011;18778;47.610;9.776;2023-03-19T13:55:58;2.43;;;2.10;;
7919;SDS011;18778;47.610;9.776;2023-03-19T13:58:44;5.37;;;2.10;;
7919;SDS011;18778;47.610;9.776;2023-03-19T14:03:57;2.67;;;2.03;;
7919;SDS011;18778;47.610;9.776;2023-03-19T14:06:35;3.83;;;2.13;;
7919;SDS011;18778;47.610;9.776;2023-03-19T14:09:04;6.03;;;2.97;;
7919;SDS011;18778;47.610;9.776;2023-03-19T14:11:50;2.37;;;1.90;;
7919;SDS011;18778;47.610;9.776;2023-03-19T14:14:15;3.37;;;2.47;;
7919;SDS011;18778;47.610;9.776;2023-03-19T14:16:42;2.63;;;2.23;;
7919;SDS011;18778;47.610;9.776;2023-03-19T14:19:11;3.53;;;2.20;;
7919;SDS011;18778;47.610;9.776;2023-03-19T14:24:20;3.23;;;2.30;;
7919;SDS011;18778;47.610;9.776;2023-03-19T14:26:56;2.87;;;2.40;;
7919;SDS011;18778;47.610;9.776;2023-03-19T14:29:26;4.27;;;2.33;;
7919;SDS011;18778;47.610;9.776;2023-03-19T14:31:53;2.67;;;2.23;;
7919;SDS011;18778;47.610;9.776;2023-03-19T14:34:31;2.60;;;2.40;;
7919;SDS011;18778;47.610;9.776;2023-03-19T14:37:07;3.17;;;2.47;;
7919;SDS011;18778;47.610;9.776;2023-03-19T14:39:42;3.27;;;2.87;;
7919;SDS011;18778;47.610;9.776;2023-03-19T14:45:16;2.90;;;2.53;;
7919;SDS011;18778;47.610;9.776;2023-03-19T14:53:23;3.63;;;2.90;;
7919;SDS011;18778;47.610;9.776;2023-03-19T14:56:01;4.47;;;3.17;;
7919;SDS011;18778;47.610;9.776;2023-03-19T14:58:55;3.63;;;3.00;;
7919;SDS011;18778;47.610;9.776;2023-03-19T15:01:22;5.07;;;2.80;;
7919;SDS011;18778;47.610;9.776;2023-03-19T15:04:09;3.43;;;2.87;;
7919;SDS011;18778;47.610;9.776;2023-03-19T15:06:38;3.50;;;3.20;;
7919;SDS011;18778;47.610;9.776;2023-03-19T15:09:26;3.33;;;3.03;;
7919;SDS011;18778;47.610;9.776;2023-03-19T15:17:33;5.10;;;2.80;;
7919;SDS011;18778;47.610;9.776;2023-03-19T15:20:12;5.77;;;3.33;;
7919;SDS011;18778;47.610;9.776;2023-03-19T15:23:17;4.33;;;3.00;;
7919;SDS011;18778;47.610;9.776;2023-03-19T15:25:48;3.83;;;3.17;;
7919;SDS011;18778;47.610;9.776;2023-03-19T15:28:42;4.33;;;3.30;;
7919;SDS011;18778;47.610;9.776;2023-03-19T15:31:09;4.47;;;3.40;;
7919;SDS011;18778;47.610;9.776;2023-03-19T15:33:37;4.17;;;3.47;;
7919;SDS011;18778;47.610;9.776;2023-03-19T15:36:11;3.57;;;3.27;;
7919;SDS011;18778;47.610;9.776;2023-03-19T15:38:42;5.97;;;3.30;;
7919;SDS011;18778;47.610;9.776;2023-03-19T15:41:17;6.43;;;3.80;;
7919;SDS011;18778;47.610;9.776;2023-03-19T15:43:45;6.60;;;3.90;;
7919;SDS011;18778;47.610;9.776;2023-03-19T15:48:43;8.33;;;5.40;;
7919;SDS011;18778;47.610;9.776;2023-03-19T15:51:09;5.87;;;4.30;;
7919;SDS011;18778;47.610;9.776;2023-03-19T15:53:38;5.23;;;3.93;;
7919;SDS011;18778;47.610;9.776;2023-03-19T15:56:04;8.13;;;4.30;;
7919;SDS011;18778;47.610;9.776;2023-03-19T15:58:31;8.17;;;5.47;;
7919;SDS011;18778;47.610;9.776;2023-03-19T16:01:01;5.57;;;5.03;;
7919;SDS011;18778;47.610;9.776;2023-03-19T16:03:35;5.00;;;4.50;;
7919;SDS011;18778;47.610;9.776;2023-03-19T16:06:04;5.50;;;4.30;;
7919;SDS011;18778;47.610;9.776;2023-03-19T16:08:44;6.33;;;4.70;;
7919;SDS011;18778;47.610;9.776;2023-03-19T16:11:23;5.23;;;4.73;;
7919;SDS011;18778;47.610;9.776;2023-03-19T16:13:58;4.90;;;4.30;;
7919;SDS011;18778;47.610;9.776;2023-03-19T16:16:44;5.27;;;4.77;;
7919;SDS011;18778;47.610;9.776;2023-03-19T16:21:51;7.33;;;5.80;;
7919;SDS011;18778;47.610;9.776;2023-03-19T16:27:16;6.37;;;5.60;;
7919;SDS011;18778;47.610;9.776;2023-03-19T16:29:48;7.43;;;6.40;;
7919;SDS011;18778;47.610;9.776;2023-03-19T16:32:21;7.40;;;6.70;;
7919;SDS011;18778;47.610;9.776;2023-03-19T16:37:32;9.00;;;7.13;;
7919;SDS011;18778;47.610;9.776;2023-03-19T16:42:40;13.50;;;7.10;;
7919;SDS011;18778;47.610;9.776;2023-03-19T16:47:38;7.30;;;6.53;;
7919;SDS011;18778;47.610;9.776;2023-03-19T16:50:04;13.77;;;10.13;;
7919;SDS011;18778;47.610;9.776;2023-03-19T16:52:30;22.10;;;15.07;;
7919;SDS011;18778;47.610;9.776;2023-03-19T16:54:57;13.50;;;8.37;;
7919;SDS011;18778;47.610;9.776;2023-03-19T16:57:24;19.53;;;13.33;;
7919;SDS011;18778;47.610;9.776;2023-03-19T16:59:51;20.33;;;13.20;;
7919;SDS011;18778;47.610;9.776;2023-03-19T17:02:17;11.73;;;8.60;;
7919;SDS011;18778;47.610;9.776;2023-03-19T17:04:42;8.00;;;7.27;;
7919;SDS011;18778;47.610;9.776;2023-03-19T17:07:09;11.67;;;9.57;;
7919;SDS011;18778;47.610;9.776;2023-03-19T17:09:35;6.57;;;5.90;;
7919;SDS011;18778;47.610;9.776;2023-03-19T17:12:01;6.40;;;5.80;;
7919;SDS011;18778;47.610;9.776;2023-03-19T17:14:28;5.87;;;5.37;;
7919;SDS011;18778;47.610;9.776;2023-03-19T17:16:55;9.07;;;7.00;;
7919;SDS011;18778;47.610;9.776;2023-03-19T17:19:22;6.53;;;5.80;;